Time;durP1;ratioP1;P1;durP2;ratioP2;P2;SDS_P1;SDS_P2;PMS_P1;PMS_P2;Temp;Humidity;BMP_temperature;BMP_pressure;BME280_temperature;BME280_humidity;BME280_pressure;Samples;Min_cycle;Max_cycle;Signal;HPM_P1;HPM_P2
2022/12/01 00:00:56;;;;;;;41.33;16.23;;;4.40;87.40;;;;;;5023993;28;20499;-72
2022/12/01 00:03:22;;;;;;;43.77;16.93;;;4.40;87.60;;;;;;5025971;28;20439;-73
2022/12/01 00:05:57;;;;;;;40.33;17.07;;;4.40;87.40;;;;;;5026732;28;20412;-73
2022/12/01 00:08:23;;;;;;;45.93;16.73;;;4.40;87.30;;;;;;5027234;28;20514;-71
2022/12/01 00:10:48;;;;;;;44.23;16.20;;;4.40;87.40;;;;;;5022321;28;20548;-72
2022/12/01 00:13:14;;;;;;;47.17;17.37;;;4.40;87.40;;;;;;5027433;28;20181;-73
2022/12/01 00:15:39;;;;;;;36.83;16.40;;;4.40;87.60;;;;;;5027507;28;20839;-74
2022/12/01 00:18:05;;;;;;;40.40;16.33;;;4.30;87.40;;;;;;5027191;28;20606;-73
2022/12/01 00:20:34;;;;;;;40.97;18.60;;;4.20;87.70;;;;;;5024831;28;20213;-74
2022/12/01 00:23:00;;;;;;;45.20;17.40;;;4.10;88.30;;;;;;5026356;28;20251;-75
2022/12/01 00:25:26;;;;;;;45.57;16.90;;;4.10;88.90;;;;;;5026036;28;20511;-73
2022/12/01 00:27:52;;;;;;;38.67;16.40;;;4.10;89.00;;;;;;5025838;28;20836;-73
2022/12/01 00:30:20;;;;;;;46.00;18.00;;;4.10;89.00;;;;;;5025176;28;20478;-71
2022/12/01 00:32:46;;;;;;;42.77;17.27;;;4.20;89.00;;;;;;5025173;28;20490;-72
2022/12/01 00:35:13;;;;;;;38.00;15.63;;;4.20;88.70;;;;;;5025470;28;20423;-74
2022/12/01 00:37:38;;;;;;;38.17;15.43;;;4.20;88.60;;;;;;5026941;28;20267;-73
2022/12/01 00:40:05;;;;;;;41.20;16.93;;;4.30;88.40;;;;;;5026783;28;20419;-73
2022/12/01 00:42:31;;;;;;;40.07;16.53;;;4.30;88.10;;;;;;5022122;28;20244;-73
2022/12/01 00:44:56;;;;;;;38.57;17.17;;;4.30;87.80;;;;;;5028287;28;20455;-73
2022/12/01 00:47:22;;;;;;;46.20;17.30;;;4.20;88.00;;;;;;5029324;28;20185;-73
2022/12/01 00:49:48;;;;;;;46.43;17.10;;;4.20;88.40;;;;;;5031190;28;20227;-74
2022/12/01 00:52:16;;;;;;;44.37;17.90;;;4.20;88.30;;;;;;5029920;28;20625;-74
2022/12/01 00:54:42;;;;;;;39.50;16.07;;;4.20;88.40;;;;;;5032233;28;20193;-72
2022/12/01 00:57:08;;;;;;;36.23;15.27;;;4.10;87.80;;;;;;5033938;28;20424;-71
2022/12/01 00:59:34;;;;;;;45.27;17.27;;;4.20;87.80;;;;;;5034176;28;20426;-72
2022/12/01 01:02:01;;;;;;;43.97;18.07;;;4.20;87.30;;;;;;5034160;28;20463;-72
2022/12/01 01:04:31;;;;;;;40.33;15.37;;;4.20;87.30;;;;;;5038881;28;20416;-74
2022/12/01 01:06:56;;;;;;;45.23;18.43;;;4.20;87.10;;;;;;5038858;28;20439;-74
2022/12/01 01:09:22;;;;;;;40.23;15.70;;;4.20;87.30;;;;;;5032605;28;20428;-73
2022/12/01 01:11:47;;;;;;;38.93;15.60;;;4.30;87.30;;;;;;5028491;28;20263;-73
2022/12/01 01:14:14;;;;;;;35.03;14.53;;;4.30;86.90;;;;;;5032850;28;20186;-74
2022/12/01 01:16:39;;;;;;;40.20;16.20;;;4.30;86.60;;;;;;5035637;28;20226;-74
2022/12/01 01:19:05;;;;;;;34.57;15.77;;;4.30;85.90;;;;;;5034354;28;20428;-73
2022/12/01 01:21:31;;;;;;;36.37;15.67;;;4.20;85.90;;;;;;5029908;28;20589;-73
2022/12/01 01:23:56;;;;;;;32.83;13.40;;;4.20;86.00;;;;;;5034662;28;20192;-73
2022/12/01 01:26:26;;;;;;;35.60;15.23;;;4.20;86.00;;;;;;5034939;28;20228;-73
2022/12/01 01:28:52;;;;;;;42.20;18.10;;;4.30;86.20;;;;;;5032633;28;20212;-73
2022/12/01 01:31:23;;;;;;;41.20;18.13;;;4.40;86.00;;;;;;5028081;28;20479;-73
2022/12/01 01:33:49;;;;;;;43.50;16.83;;;4.40;85.60;;;;;;5030613;28;20419;-73
2022/12/01 01:36:15;;;;;;;37.20;17.03;;;4.40;85.90;;;;;;5030496;28;20422;-74
2022/12/01 01:38:41;;;;;;;44.07;19.67;;;4.30;86.20;;;;;;5031880;28;20427;-75
2022/12/01 01:41:07;;;;;;;48.47;16.70;;;4.20;86.50;;;;;;5028087;28;20460;-74
2022/12/01 01:43:43;;;;;;;43.47;17.83;;;4.10;86.60;;;;;;5031568;28;20196;-73
2022/12/01 01:46:11;;;;;;;42.10;17.67;;;4.10;86.80;;;;;;5031626;28;20435;-74
2022/12/01 01:48:39;;;;;;;43.53;16.13;;;4.10;86.60;;;;;;5030203;28;20957;-74
2022/12/01 01:51:05;;;;;;;38.23;16.60;;;4.10;86.80;;;;;;5028568;28;20562;-74
2022/12/01 01:53:31;;;;;;;40.07;17.13;;;4.10;86.80;;;;;;5034485;28;20531;-74
2022/12/01 01:55:58;;;;;;;42.33;16.20;;;4.10;86.50;;;;;;5053883;28;20416;-73
2022/12/01 01:58:24;;;;;;;41.00;15.80;;;4.10;86.30;;;;;;5052019;28;20435;-73
2022/12/01 02:00:50;;;;;;;39.20;15.67;;;4.00;86.00;;;;;;5041025;28;21039;-74
2022/12/01 02:03:18;;;;;;;38.27;16.60;;;4.00;86.30;;;;;;5030495;28;20435;-72
2022/12/01 02:05:44;;;;;;;44.90;18.23;;;4.00;86.50;;;;;;5028745;28;20272;-73
2022/12/01 02:08:11;;;;;;;42.90;16.90;;;4.00;86.30;;;;;;5031640;28;20980;-72
2022/12/01 02:10:58;;;;;;;40.43;16.20;;;4.10;86.50;;;;;;5028605;28;20578;-73
2022/12/01 02:13:42;;;;;;;44.60;16.80;;;4.10;86.30;;;;;;5029765;28;20808;-74
2022/12/01 02:16:17;;;;;;;36.57;16.80;;;4.00;86.30;;;;;;5025240;28;20590;-74
2022/12/01 02:19:02;;;;;;;36.10;16.60;;;3.90;86.50;;;;;;5033018;28;20423;-72
2022/12/01 02:21:46;;;;;;;41.37;16.80;;;4.00;86.80;;;;;;5028969;28;20966;-73
2022/12/01 02:24:39;;;;;;;41.90;15.33;;;3.90;86.50;;;;;;5032902;28;21119;-72
2022/12/01 02:27:27;;;;;;;33.60;15.30;;;3.80;86.50;;;;;;5032368;28;20432;-72
2022/12/01 02:30:10;;;;;;;38.57;16.80;;;3.90;86.60;;;;;;5038356;28;20432;-74
2022/12/01 02:32:51;;;;;;;37.60;15.60;;;3.80;85.90;;;;;;5030508;28;20469;-73
2022/12/01 02:35:41;;;;;;;35.53;15.43;;;3.90;86.20;;;;;;5026908;28;20459;-73
2022/12/01 02:38:27;;;;;;;45.60;17.23;;;3.90;86.20;;;;;;5028488;28;20481;-72
2022/12/01 02:41:06;;;;;;;41.17;15.17;;;3.90;85.70;;;;;;5027175;28;20483;-70
2022/12/01 02:43:37;;;;;;;36.97;16.17;;;4.00;85.70;;;;;;5030390;28;20423;-73
2022/12/01 02:46:35;;;;;;;37.40;16.10;;;3.90;85.50;;;;;;5029512;28;21318;-72
2022/12/01 02:49:10;;;;;;;35.67;14.73;;;3.90;85.60;;;;;;4984445;28;21145;-72
2022/12/01 02:51:38;;;;;;;37.73;14.80;;;3.80;85.70;;;;;;4986742;28;20489;-73
2022/12/01 02:54:04;;;;;;;31.67;14.30;;;3.80;85.90;;;;;;4989578;28;20803;-73
2022/12/01 02:56:30;;;;;;;38.23;16.77;;;3.80;85.90;;;;;;4989503;28;20440;-72
2022/12/01 02:58:56;;;;;;;36.57;15.37;;;3.80;85.60;;;;;;4989522;28;20434;-72
2022/12/01 03:01:58;;;;;;;41.17;16.60;;;3.80;85.90;;;;;;4986085;28;20666;-71
2022/12/01 03:04:30;;;;;;;34.20;15.90;;;3.90;85.90;;;;;;4987332;28;20190;-72
2022/12/01 03:07:17;;;;;;;44.17;16.63;;;3.80;85.30;;;;;;4989197;28;20434;-72
2022/12/01 03:09:57;;;;;;;38.67;15.77;;;3.70;85.50;;;;;;4994503;28;20429;-71
2022/12/01 03:12:33;;;;;;;41.33;16.37;;;3.70;85.60;;;;;;4989851;28;20469;-72
2022/12/01 03:15:02;;;;;;;35.07;15.17;;;3.70;85.90;;;;;;4998624;28;20448;-72
2022/12/01 03:17:36;;;;;;;34.40;15.70;;;3.70;86.00;;;;;;4991913;28;20422;-72
2022/12/01 03:20:16;;;;;;;40.93;16.00;;;3.70;85.70;;;;;;4998060;28;20455;-74
2022/12/01 03:22:59;;;;;;;41.77;16.70;;;3.70;85.90;;;;;;4995556;28;20464;-73
2022/12/01 03:25:27;;;;;;;34.33;14.87;;;3.60;86.20;;;;;;5009246;28;20422;-70
2022/12/01 03:27:55;;;;;;;34.00;14.30;;;3.50;86.20;;;;;;5032783;28;20416;-73
2022/12/01 03:30:25;;;;;;;40.70;16.37;;;3.50;86.50;;;;;;5031941;28;20463;-70
2022/12/01 03:33:00;;;;;;;38.03;15.83;;;3.60;86.80;;;;;;5031759;28;20424;-72
2022/12/01 03:35:34;;;;;;;41.13;16.57;;;3.60;86.50;;;;;;5041209;28;20794;-71
2022/12/01 03:38:07;;;;;;;39.83;15.00;;;3.50;86.00;;;;;;5036636;28;20427;-71
2022/12/01 03:40:35;;;;;;;34.70;14.87;;;3.50;86.50;;;;;;5039100;28;20448;-70
2022/12/01 03:43:06;;;;;;;43.63;16.10;;;3.50;86.90;;;;;;5034657;28;21089;-73
2022/12/01 03:45:58;;;;;;;33.73;13.90;;;3.60;86.60;;;;;;5047286;28;20446;-71
2022/12/01 03:48:24;;;;;;;39.63;14.97;;;3.50;86.50;;;;;;5042467;28;20451;-71
2022/12/01 03:51:31;;;;;;;41.00;16.03;;;3.50;86.50;;;;;;5044068;28;20498;-72
2022/12/01 03:54:25;;;;;;;38.73;16.17;;;3.60;86.60;;;;;;5040839;28;20922;-74
2022/12/01 03:57:04;;;;;;;38.43;15.80;;;3.50;86.30;;;;;;5041912;28;20459;-73
2022/12/01 03:59:34;;;;;;;38.77;16.53;;;3.50;86.50;;;;;;5049408;28;20442;-69
2022/12/01 04:02:00;;;;;;;37.93;16.20;;;3.50;86.30;;;;;;5042403;28;20459;-75
2022/12/01 04:04:25;;;;;;;31.30;14.70;;;3.50;86.60;;;;;;5029573;28;20419;-74
2022/12/01 04:06:51;;;;;;;39.63;17.40;;;3.50;86.60;;;;;;5029604;28;20420;-72
2022/12/01 04:09:17;;;;;;;38.37;15.63;;;3.60;86.20;;;;;;5029589;28;20242;-73
2022/12/01 04:14:28;;;;;;;40.13;16.00;;;3.50;86.20;;;;;;5029668;28;20204;-72
2022/12/01 04:16:54;;;;;;;36.30;15.07;;;3.50;86.50;;;;;;5027356;28;20546;-72
2022/12/01 04:19:20;;;;;;;41.07;16.03;;;3.50;86.50;;;;;;5029334;28;20552;-74
2022/12/01 04:21:45;;;;;;;44.90;16.90;;;3.50;86.30;;;;;;5026111;28;20209;-74
2022/12/01 04:24:12;;;;;;;36.60;16.23;;;3.50;86.30;;;;;;5032045;28;20207;-73
2022/12/01 04:26:37;;;;;;;41.70;16.17;;;3.60;86.50;;;;;;5033592;28;20304;-75
2022/12/01 04:29:06;;;;;;;36.27;15.23;;;3.60;86.20;;;;;;5034815;28;20566;-72
2022/12/01 04:31:31;;;;;;;34.17;16.33;;;3.70;86.20;;;;;;5029942;28;20217;-75
2022/12/01 04:33:58;;;;;;;35.63;14.70;;;3.70;86.00;;;;;;5033003;28;20764;-73
2022/12/01 04:36:24;;;;;;;37.10;15.40;;;3.70;85.70;;;;;;5032876;28;20188;-76
2022/12/01 04:38:50;;;;;;;37.57;14.70;;;3.70;85.30;;;;;;5033081;28;20420;-75
2022/12/01 04:41:17;;;;;;;34.93;16.30;;;3.70;85.50;;;;;;5029645;28;20463;-72
2022/12/01 04:43:43;;;;;;;36.83;15.50;;;3.80;85.50;;;;;;5029667;28;20189;-75
2022/12/01 04:46:10;;;;;;;32.13;14.73;;;3.80;85.30;;;;;;5032573;28;20447;-76
2022/12/01 04:48:37;;;;;;;35.80;13.60;;;3.90;85.30;;;;;;5033291;28;20274;-74
2022/12/01 04:51:04;;;;;;;40.50;16.40;;;3.90;84.70;;;;;;5030062;28;20890;-74
2022/12/01 04:53:30;;;;;;;39.10;16.00;;;3.90;84.60;;;;;;5031621;28;20466;-72
2022/12/01 04:55:55;;;;;;;39.80;16.70;;;3.90;84.40;;;;;;5032401;28;20448;-74
2022/12/01 04:58:21;;;;;;;37.70;17.50;;;3.80;84.60;;;;;;5032700;28;20185;-74
2022/12/01 05:00:47;;;;;;;39.70;15.50;;;3.80;84.60;;;;;;5030008;28;20249;-72
2022/12/01 05:03:12;;;;;;;36.10;15.23;;;3.90;84.70;;;;;;5031594;28;20199;-73
2022/12/01 05:05:38;;;;;;;32.07;14.30;;;3.90;84.70;;;;;;5032044;28;20181;-73
2022/12/01 05:08:04;;;;;;;38.00;15.50;;;3.90;84.70;;;;;;5032375;28;20185;-73
2022/12/01 05:10:29;;;;;;;38.30;16.80;;;3.90;84.40;;;;;;5029978;28;20292;-72
2022/12/01 05:12:56;;;;;;;44.40;16.67;;;3.80;84.60;;;;;;5031588;28;20185;-75
2022/12/01 05:15:23;;;;;;;39.67;14.90;;;3.80;84.70;;;;;;5031967;28;20204;-73
2022/12/01 05:17:49;;;;;;;38.90;15.20;;;3.80;84.60;;;;;;5031169;28;20420;-73
2022/12/01 05:23:05;;;;;;;38.87;15.90;;;3.70;84.70;;;;;;5030932;28;20208;-72
2022/12/01 05:25:30;;;;;;;38.47;15.57;;;3.70;84.90;;;;;;5031789;28;20424;-73
2022/12/01 05:27:56;;;;;;;45.60;18.80;;;3.80;85.00;;;;;;5031929;28;20189;-74
2022/12/01 05:30:22;;;;;;;38.63;16.27;;;3.90;84.90;;;;;;5030534;28;20672;-73
2022/12/01 05:32:47;;;;;;;40.07;16.63;;;3.90;84.90;;;;;;5029935;28;20281;-75
2022/12/01 05:35:13;;;;;;;36.67;16.80;;;3.90;84.60;;;;;;5031748;28;20185;-73
2022/12/01 05:37:38;;;;;;;44.07;17.43;;;4.00;84.60;;;;;;5031624;28;20498;-73
2022/12/01 05:40:05;;;;;;;41.67;17.53;;;3.90;84.10;;;;;;5031446;28;20177;-73
2022/12/01 05:42:30;;;;;;;35.83;16.70;;;3.80;84.60;;;;;;5028775;28;20208;-74
2022/12/01 05:44:56;;;;;;;36.90;15.40;;;3.60;85.00;;;;;;5031806;28;20428;-75
2022/12/01 05:47:22;;;;;;;43.23;18.43;;;3.60;85.20;;;;;;5031676;28;20193;-74
2022/12/01 05:49:47;;;;;;;48.33;17.83;;;3.60;85.50;;;;;;5031344;28;20268;-72
2022/12/01 05:52:13;;;;;;;41.93;17.67;;;3.50;85.70;;;;;;5028390;28;20319;-72
2022/12/01 05:54:39;;;;;;;43.17;17.50;;;3.50;86.00;;;;;;5031153;28;20191;-74
2022/12/01 05:57:04;;;;;;;42.43;18.63;;;3.50;86.20;;;;;;5029947;28;20272;-71
2022/12/01 05:59:30;;;;;;;42.73;17.43;;;3.50;86.00;;;;;;5031122;28;20244;-74
2022/12/01 06:01:55;;;;;;;42.53;17.63;;;3.50;86.00;;;;;;5027809;28;20213;-71
2022/12/01 06:04:21;;;;;;;45.17;18.10;;;3.40;86.20;;;;;;5032581;28;20177;-71
2022/12/01 06:06:47;;;;;;;45.53;18.13;;;3.40;86.60;;;;;;5036554;28;20181;-72
2022/12/01 06:09:12;;;;;;;43.67;18.33;;;3.30;86.90;;;;;;5034583;28;20224;-72
2022/12/01 06:11:38;;;;;;;43.03;17.60;;;3.30;87.00;;;;;;5029085;28;20255;-72
2022/12/01 06:14:03;;;;;;;39.40;17.70;;;3.50;87.30;;;;;;5031268;28;20181;-73
2022/12/01 06:17:01;;;;;;;44.20;18.47;;;3.50;87.00;;;;;;5031129;28;20192;-74
2022/12/01 06:19:27;;;;;;;44.60;18.60;;;3.50;86.50;;;;;;5028302;28;20213;-74
2022/12/01 06:21:52;;;;;;;48.73;18.00;;;3.50;86.30;;;;;;5026415;28;21020;-72
2022/12/01 06:24:18;;;;;;;53.30;20.50;;;3.40;86.30;;;;;;5033185;28;20192;-74
2022/12/01 06:26:44;;;;;;;42.90;18.47;;;3.50;86.50;;;;;;5031836;28;20212;-72
2022/12/01 06:29:09;;;;;;;44.40;18.10;;;3.50;86.50;;;;;;5032338;28;20591;-71
2022/12/01 06:31:35;;;;;;;41.67;18.27;;;3.40;86.50;;;;;;5030864;28;20225;-72
2022/12/01 06:34:00;;;;;;;44.20;18.47;;;3.50;86.60;;;;;;5034816;28;20181;-73
2022/12/01 06:36:26;;;;;;;44.00;19.90;;;3.50;86.60;;;;;;5032343;28;20185;-71
2022/12/01 06:38:52;;;;;;;47.33;19.00;;;3.50;86.60;;;;;;5033570;28;20193;-72
2022/12/01 06:41:17;;;;;;;42.43;18.50;;;3.50;87.00;;;;;;5029451;28;20216;-75
2022/12/01 06:43:43;;;;;;;50.07;20.80;;;3.50;86.90;;;;;;5029404;28;20276;-71
2022/12/01 06:46:08;;;;;;;42.43;17.50;;;3.50;87.00;;;;;;5030804;28;20258;-73
2022/12/01 06:48:34;;;;;;;46.90;17.83;;;3.50;87.00;;;;;;5030965;28;20565;-73
2022/12/01 06:51:00;;;;;;;41.83;17.90;;;3.60;86.90;;;;;;5029069;28;20300;-72
2022/12/01 06:53:27;;;;;;;40.70;18.17;;;3.50;86.90;;;;;;5030249;28;20767;-72
2022/12/01 06:55:53;;;;;;;56.07;17.90;;;3.50;87.10;;;;;;5030588;28;20420;-72
2022/12/01 06:58:19;;;;;;;36.20;16.60;;;3.60;87.00;;;;;;5029837;28;20459;-71
2022/12/01 07:00:44;;;;;;;41.57;18.17;;;3.60;86.80;;;;;;5026983;28;20498;-72
2022/12/01 07:03:11;;;;;;;47.37;17.63;;;3.70;87.10;;;;;;5026332;28;20247;-71
2022/12/01 07:05:37;;;;;;;46.87;19.07;;;3.70;86.60;;;;;;5028713;28;20589;-71
2022/12/01 07:08:02;;;;;;;37.03;17.20;;;3.70;86.80;;;;;;5030893;28;20462;-72
2022/12/01 07:10:28;;;;;;;42.60;18.27;;;3.70;86.80;;;;;;5029539;28;20578;-72
2022/12/01 07:12:56;;;;;;;47.73;17.83;;;3.90;87.10;;;;;;5026546;28;20209;-72
2022/12/01 07:15:23;;;;;;;40.73;18.50;;;4.00;87.00;;;;;;5031790;28;20185;-70
2022/12/01 07:17:49;;;;;;;39.90;17.00;;;3.90;86.20;;;;;;5032665;28;20450;-71
2022/12/01 07:20:15;;;;;;;46.13;18.20;;;3.90;86.60;;;;;;5031651;28;20427;-72
2022/12/01 07:22:41;;;;;;;39.40;17.50;;;3.90;86.30;;;;;;5028107;28;20435;-72
2022/12/01 07:25:08;;;;;;;46.87;18.60;;;3.70;86.30;;;;;;5030046;28;20211;-72
2022/12/01 07:27:34;;;;;;;37.57;18.63;;;3.40;87.10;;;;;;5027337;28;20976;-71
2022/12/01 07:30:00;;;;;;;43.43;18.47;;;3.40;87.80;;;;;;5029879;28;20927;-71
2022/12/01 07:32:25;;;;;;;47.30;18.60;;;3.40;88.30;;;;;;5025558;28;20463;-72
2022/12/01 07:37:56;;;;;;;41.20;18.43;;;3.40;87.70;;;;;;5666154;22;20240;-72
2022/12/01 07:40:22;;;;;;;45.07;18.30;;;3.50;87.80;;;;;;5032948;28;20487;-77
2022/12/01 07:42:48;;;;;;;45.20;19.00;;;3.60;87.80;;;;;;5029678;28;20444;-76
2022/12/01 07:45:14;;;;;;;38.67;16.60;;;3.70;87.70;;;;;;5028072;28;20425;-75
2022/12/01 07:47:39;;;;;;;43.13;17.33;;;3.80;87.40;;;;;;5027860;28;20205;-74
2022/12/01 07:50:06;;;;;;;48.40;18.60;;;3.80;87.10;;;;;;5036131;28;20248;-76
2022/12/01 07:52:31;;;;;;;43.70;17.20;;;3.70;86.60;;;;;;5024925;28;20277;-75
2022/12/01 07:54:57;;;;;;;44.37;18.20;;;3.70;86.60;;;;;;5031029;28;20417;-76
2022/12/01 07:57:23;;;;;;;44.70;18.67;;;3.70;86.80;;;;;;5028371;28;20198;-77
2022/12/01 07:59:48;;;;;;;45.37;18.83;;;3.70;86.90;;;;;;5030319;28;20208;-76
2022/12/01 08:02:14;;;;;;;45.07;17.63;;;3.60;86.80;;;;;;5030581;28;20453;-74
2022/12/01 08:04:41;;;;;;;44.97;18.70;;;3.50;87.00;;;;;;5038491;28;20201;-76
2022/12/01 08:07:07;;;;;;;40.83;18.57;;;3.40;87.10;;;;;;5031487;28;20210;-75
2022/12/01 08:09:32;;;;;;;43.17;16.30;;;3.50;87.60;;;;;;5036645;28;20396;-76
2022/12/01 08:11:58;;;;;;;44.20;18.20;;;3.60;87.60;;;;;;5036479;28;20214;-75
2022/12/01 08:14:23;;;;;;;45.30;17.43;;;3.40;87.40;;;;;;5035562;28;20182;-76
2022/12/01 08:16:49;;;;;;;44.20;18.40;;;3.40;87.60;;;;;;5033372;28;20211;-78
2022/12/01 08:19:14;;;;;;;42.67;17.37;;;3.40;87.70;;;;;;5024942;28;20186;-75
2022/12/01 08:21:40;;;;;;;44.10;17.63;;;3.40;87.70;;;;;;5035754;28;20180;-78
2022/12/01 08:24:06;;;;;;;42.30;17.80;;;3.50;87.80;;;;;;5037260;28;20178;-75
2022/12/01 08:26:32;;;;;;;56.13;18.30;;;3.50;87.70;;;;;;5034010;28;20190;-75
2022/12/01 08:28:58;;;;;;;40.57;17.30;;;3.60;87.40;;;;;;5032059;28;20430;-76
2022/12/01 08:31:27;;;;;;;42.60;17.10;;;3.70;87.30;;;;;;5035483;28;20483;-74
2022/12/01 08:33:53;;;;;;;47.60;18.00;;;3.60;86.60;;;;;;5030253;28;20455;-76
2022/12/01 08:36:20;;;;;;;45.13;18.77;;;3.50;86.90;;;;;;5018614;28;20428;-78
2022/12/01 08:38:49;;;;;;;39.13;16.40;;;3.50;87.00;;;;;;5014755;28;20464;-76
2022/12/01 08:41:16;;;;;;;48.33;18.23;;;3.50;87.00;;;;;;5010849;28;20437;-77
2022/12/01 08:43:43;;;;;;;51.20;18.27;;;3.50;87.10;;;;;;5015743;28;20452;-78
2022/12/01 08:46:10;;;;;;;43.60;18.80;;;3.40;87.40;;;;;;5018657;28;20524;-77
2022/12/01 08:48:36;;;;;;;47.60;19.50;;;3.40;87.70;;;;;;5014941;28;20448;-77
2022/12/01 08:51:15;;;;;;;45.47;18.43;;;3.40;87.80;;;;;;5018963;28;20503;-77
2022/12/01 08:53:44;;;;;;;42.47;17.33;;;3.30;87.80;;;;;;5018632;28;20189;-78
2022/12/01 08:56:23;;;;;;;39.63;16.90;;;3.30;88.10;;;;;;5017265;28;20785;-78
2022/12/01 08:58:50;;;;;;;40.70;16.00;;;3.30;88.10;;;;;;5010091;28;20440;-78
2022/12/01 09:01:17;;;;;;;45.93;18.10;;;3.30;88.00;;;;;;5021526;28;20429;-77
2022/12/01 09:03:43;;;;;;;45.20;18.30;;;3.40;88.00;;;;;;5017259;28;20969;-77
2022/12/01 09:06:19;;;;;;;45.30;18.77;;;3.40;87.60;;;;;;5015153;28;20424;-77
2022/12/01 09:08:45;;;;;;;46.47;16.77;;;3.40;87.70;;;;;;5011364;28;20460;-77
2022/12/01 09:11:13;;;;;;;38.83;15.90;;;3.50;87.70;;;;;;5010965;28;20469;-78
2022/12/01 09:13:39;;;;;;;45.30;17.20;;;3.50;87.40;;;;;;5015161;28;20421;-77
2022/12/01 09:16:16;;;;;;;42.90;17.70;;;3.50;87.70;;;;;;5018759;28;20920;-78
2022/12/01 09:18:43;;;;;;;35.87;16.83;;;3.70;87.70;;;;;;5011357;28;20859;-77
2022/12/01 09:21:21;;;;;;;41.13;16.20;;;3.70;87.10;;;;;;5016128;28;20452;-78
2022/12/01 09:23:47;;;;;;;42.93;16.53;;;3.70;86.80;;;;;;5009318;28;20519;-78
2022/12/01 09:26:17;;;;;;;41.23;16.60;;;3.60;86.90;;;;;;5006722;28;20452;-77
2022/12/01 09:28:46;;;;;;;45.27;17.67;;;3.50;87.30;;;;;;5011165;28;20483;-78
2022/12/01 09:31:13;;;;;;;39.80;17.20;;;3.50;87.30;;;;;;5015210;28;20468;-78
2022/12/01 09:33:39;;;;;;;40.70;17.50;;;3.60;87.40;;;;;;5017652;28;20520;-77
2022/12/01 09:36:07;;;;;;;41.50;17.80;;;3.60;87.30;;;;;;5013918;28;20452;-77
2022/12/01 09:38:34;;;;;;;40.57;17.70;;;3.70;87.30;;;;;;5015050;28;20491;-78
2022/12/01 09:41:14;;;;;;;37.97;15.53;;;3.80;87.00;;;;;;5011155;28;20453;-77
2022/12/01 09:43:44;;;;;;;38.00;17.47;;;3.80;86.60;;;;;;5013548;28;20432;-78
2022/12/01 09:46:21;;;;;;;42.53;17.43;;;3.90;86.50;;;;;;5014255;28;20439;-77
2022/12/01 09:48:48;;;;;;;41.87;16.70;;;3.80;86.20;;;;;;5010629;28;20821;-80
2022/12/01 09:51:26;;;;;;;38.43;17.00;;;3.70;86.60;;;;;;5010258;28;20460;-76
2022/12/01 09:53:58;;;;;;;43.07;18.97;;;3.70;86.80;;;;;;5012792;28;20432;-76
2022/12/01 09:56:29;;;;;;;42.97;16.40;;;3.90;86.90;;;;;;5009792;28;20434;-78
2022/12/01 09:59:01;;;;;;;44.93;17.67;;;3.80;86.30;;;;;;5009211;28;20999;-76
2022/12/01 10:01:35;;;;;;;41.90;16.97;;;3.80;86.50;;;;;;5011134;28;20423;-78
2022/12/01 10:04:23;;;;;;;37.73;16.57;;;3.70;86.60;;;;;;5008397;28;21289;-78
2022/12/01 10:07:11;;;;;;;44.20;17.90;;;3.70;86.90;;;;;;5006694;28;20449;-77
2022/12/01 10:09:47;;;;;;;49.77;18.93;;;3.70;87.00;;;;;;5006500;28;20482;-77
2022/12/01 10:12:16;;;;;;;45.20;17.10;;;3.60;87.30;;;;;;5010419;28;20550;-78
2022/12/01 10:14:45;;;;;;;44.93;17.40;;;3.60;87.40;;;;;;5004574;28;20430;-76
2022/12/01 10:17:16;;;;;;;42.03;17.33;;;3.70;87.30;;;;;;5009934;28;20456;-77
2022/12/01 10:19:58;;;;;;;37.67;16.20;;;3.70;87.00;;;;;;5007380;28;20429;-78
2022/12/01 10:22:26;;;;;;;44.17;18.37;;;3.70;87.00;;;;;;5008231;28;20510;-78
2022/12/01 10:24:54;;;;;;;46.33;17.23;;;3.70;87.00;;;;;;5006222;28;20430;-77
2022/12/01 10:27:55;;;;;;;41.50;17.53;;;3.70;87.40;;;;;;5004671;28;20461;-79
2022/12/01 10:30:22;;;;;;;47.80;17.70;;;3.70;87.30;;;;;;4984531;28;20428;-78
2022/12/01 10:33:14;;;;;;;40.67;18.37;;;3.70;87.00;;;;;;5012577;28;20428;-77
2022/12/01 10:35:40;;;;;;;37.77;15.77;;;3.70;87.30;;;;;;5011738;28;20504;-78
2022/12/01 10:38:13;;;;;;;39.53;15.80;;;3.70;87.30;;;;;;5014218;28;20452;-77
2022/12/01 10:40:41;;;;;;;40.60;18.20;;;3.70;87.30;;;;;;5014285;28;20887;-78
2022/12/01 10:43:09;;;;;;;42.23;17.23;;;3.70;87.40;;;;;;5020630;28;20435;-78
2022/12/01 10:45:39;;;;;;;46.80;18.50;;;3.80;87.30;;;;;;5020328;28;21232;-77
2022/12/01 10:48:13;;;;;;;38.67;16.10;;;3.80;87.10;;;;;;5026736;28;20544;-76
2022/12/01 10:50:40;;;;;;;40.53;17.07;;;3.80;87.10;;;;;;5034619;28;20451;-77
2022/12/01 10:53:05;;;;;;;43.00;17.00;;;3.90;87.40;;;;;;5031636;28;20427;-77
2022/12/01 10:55:37;;;;;;;36.97;16.00;;;4.00;87.00;;;;;;5020095;28;20512;-79
2022/12/01 10:58:12;;;;;;;40.40;16.30;;;3.90;86.30;;;;;;5008895;28;20234;-77
2022/12/01 11:00:40;;;;;;;40.37;17.87;;;3.80;86.80;;;;;;5011294;28;20426;-77
2022/12/01 11:03:16;;;;;;;41.30;18.00;;;3.80;86.90;;;;;;5008989;28;20428;-79
2022/12/01 11:05:42;;;;;;;44.93;17.93;;;3.90;87.00;;;;;;5015626;28;20539;-78
2022/12/01 11:08:21;;;;;;;41.80;17.63;;;3.90;86.80;;;;;;5006562;28;20539;-78
2022/12/01 11:10:49;;;;;;;45.13;18.00;;;3.90;86.50;;;;;;5003076;28;20209;-77
2022/12/01 11:13:21;;;;;;;37.50;17.83;;;3.90;86.80;;;;;;5013064;28;20412;-77
2022/12/01 11:15:53;;;;;;;42.73;17.80;;;4.00;86.60;;;;;;5013316;28;21001;-77
2022/12/01 11:18:33;;;;;;;36.57;15.90;;;4.00;86.50;;;;;;5013914;28;20467;-79
2022/12/01 11:21:25;;;;;;;46.80;17.00;;;3.90;86.50;;;;;;5015552;28;20435;-78
2022/12/01 11:23:54;;;;;;;41.93;18.40;;;3.90;86.60;;;;;;5006087;28;20444;-77
2022/12/01 11:26:22;;;;;;;38.33;15.77;;;3.90;87.00;;;;;;5010575;28;20440;-78
2022/12/01 11:29:05;;;;;;;44.67;18.43;;;4.00;86.50;;;;;;5013669;28;20543;-77
2022/12/01 11:31:44;;;;;;;45.60;17.33;;;3.90;86.50;;;;;;5015113;28;20584;-78
2022/12/01 11:34:33;;;;;;;35.53;16.93;;;3.90;86.60;;;;;;5010444;28;20441;-78
2022/12/01 11:37:16;;;;;;;38.83;16.60;;;3.90;86.60;;;;;;5009179;28;20460;-77
2022/12/01 11:39:43;;;;;;;41.40;17.20;;;3.90;86.60;;;;;;5006376;28;20498;-78
2022/12/01 11:42:29;;;;;;;35.53;17.30;;;3.90;86.80;;;;;;5011887;28;20435;-78
2022/12/01 11:45:05;;;;;;;37.37;17.87;;;4.00;86.90;;;;;;5013505;28;20432;-79
2022/12/01 11:47:30;;;;;;;38.23;17.50;;;4.10;86.80;;;;;;5003811;28;20464;-78
2022/12/01 11:50:03;;;;;;;44.03;19.23;;;4.10;85.90;;;;;;5009951;28;20923;-77
2022/12/01 11:52:35;;;;;;;42.43;18.67;;;4.00;86.00;;;;;;5008745;28;20202;-78
2022/12/01 11:55:19;;;;;;;35.40;15.80;;;3.90;86.50;;;;;;5005889;28;20510;-78
2022/12/01 11:57:47;;;;;;;33.90;15.87;;;4.00;86.80;;;;;;5001208;28;20562;-80
2022/12/01 12:00:15;;;;;;;41.47;18.17;;;4.10;86.80;;;;;;5006464;28;20440;-79
2022/12/01 12:03:07;;;;;;;45.23;18.10;;;4.20;86.80;;;;;;5007963;28;20425;-79
2022/12/01 12:05:58;;;;;;;36.93;16.93;;;4.30;86.00;;;;;;4999652;28;20429;-76
2022/12/01 12:08:24;;;;;;;40.73;17.50;;;4.30;85.90;;;;;;5008435;28;20467;-79
2022/12/01 12:10:59;;;;;;;38.70;16.83;;;4.40;85.60;;;;;;5008544;28;20467;-78
2022/12/01 12:14:00;;;;;;;36.80;16.13;;;4.40;85.50;;;;;;5008145;28;20178;-77
2022/12/01 12:16:50;;;;;;;38.90;17.17;;;4.40;85.50;;;;;;4998839;28;20425;-75
2022/12/01 12:19:28;;;;;;;37.03;16.33;;;4.40;85.30;;;;;;5011455;28;20504;-75
2022/12/01 12:22:05;;;;;;;39.13;16.27;;;4.40;85.00;;;;;;5008182;28;20424;-74
2022/12/01 12:24:46;;;;;;;37.17;16.10;;;4.50;85.00;;;;;;5010391;28;20431;-76
2022/12/01 12:27:27;;;;;;;44.03;16.90;;;4.50;85.00;;;;;;5010046;28;20456;-74
2022/12/01 12:30:02;;;;;;;42.27;17.00;;;4.50;85.20;;;;;;5004687;28;20805;-78
2022/12/01 12:32:53;;;;;;;36.50;15.77;;;4.50;84.90;;;;;;5011358;28;20472;-75
2022/12/01 12:35:33;;;;;;;40.30;16.60;;;4.40;85.20;;;;;;5006692;28;20437;-76
2022/12/01 12:38:26;;;;;;;35.70;16.77;;;4.50;85.00;;;;;;5009331;28;20825;-75
2022/12/01 12:40:59;;;;;;;34.53;14.83;;;4.50;84.90;;;;;;5021553;28;20449;-75
2022/12/01 12:43:33;;;;;;;39.53;15.97;;;4.60;84.90;;;;;;5010469;28;20487;-75
2022/12/01 12:45:59;;;;;;;40.07;15.90;;;4.60;84.40;;;;;;5010735;28;20428;-75
2022/12/01 12:48:59;;;;;;;36.67;15.17;;;4.60;84.10;;;;;;5008190;28;20472;-76
2022/12/01 12:51:41;;;;;;;40.67;15.97;;;4.60;84.30;;;;;;5013215;28;20480;-76
2022/12/01 12:54:17;;;;;;;36.97;16.20;;;4.80;84.60;;;;;;5010413;28;20443;-77
2022/12/01 12:56:46;;;;;;;38.83;16.13;;;4.90;84.10;;;;;;5012418;28;20518;-76
2022/12/01 12:59:21;;;;;;;38.47;16.33;;;5.00;83.80;;;;;;5014945;28;21132;-75
2022/12/01 13:01:57;;;;;;;43.53;15.67;;;5.20;83.40;;;;;;5015829;28;20416;-75